createdAt,value
2017-11-28T11:25:00.529Z,8.90
2017-11-28T11:27:32.441Z,8.80
2017-11-28T11:30:04.309Z,8.80
2017-11-28T11:32:36.213Z,8.70
2017-11-28T11:35:08.085Z,8.80
2017-11-28T11:37:40.247Z,8.70
2017-11-28T11:40:12.127Z,8.70
2017-11-28T11:42:44.064Z,8.70
2017-11-28T11:45:15.938Z,8.70
2017-11-28T11:47:47.836Z,8.70
2017-11-28T11:50:19.705Z,8.60
2017-11-28T11:52:51.615Z,8.60
2017-11-28T11:55:23.496Z,8.60
2017-11-28T11:57:55.405Z,8.60
2017-11-28T12:00:27.290Z,8.60
2017-11-28T12:02:59.198Z,8.70
2017-11-28T12:05:31.082Z,8.70
2017-11-28T12:08:03.786Z,8.70
2017-11-28T12:10:35.653Z,8.70
2017-11-28T12:13:07.624Z,8.70
2017-11-28T12:15:39.483Z,8.70
2017-11-28T12:18:11.645Z,8.70
2017-11-28T12:20:43.510Z,8.70
2017-11-28T12:23:15.442Z,8.70
2017-11-28T12:25:48.077Z,8.80
2017-11-28T12:28:20.832Z,8.80
2017-11-28T12:30:52.709Z,8.90
2017-11-28T12:33:24.664Z,9.00
2017-11-28T12:35:56.611Z,9.00
2017-11-28T12:38:28.526Z,9.00
2017-11-28T12:41:00.402Z,9.00
2017-11-28T12:43:32.294Z,9.10
2017-11-28T12:46:04.478Z,9.00
2017-11-28T12:48:36.382Z,9.00
2017-11-28T12:51:08.244Z,9.00
2017-11-28T12:53:40.905Z,8.90
2017-11-28T12:56:12.777Z,8.80
2017-11-28T12:58:44.684Z,8.80
2017-11-28T13:01:16.566Z,8.90
2017-11-28T13:03:48.457Z,8.90
2017-11-28T13:06:20.334Z,8.90
2017-11-28T13:08:53.007Z,8.80
2017-11-28T13:11:25.641Z,8.70
2017-11-28T13:13:58.308Z,8.60
2017-11-28T13:16:30.181Z,8.60
2017-11-28T13:19:02.093Z,8.50
2017-11-28T13:21:33.987Z,8.40
2017-11-28T13:24:05.887Z,8.30
2017-11-28T13:26:37.761Z,8.20
2017-11-28T13:29:10.433Z,8.20
2017-11-28T13:31:43.078Z,8.20
2017-11-28T13:34:14.976Z,8.20
2017-11-28T13:36:47.605Z,8.30
2017-11-28T13:39:19.514Z,8.30
2017-11-28T13:41:52.424Z,8.50
2017-11-28T13:44:24.380Z,8.40
2017-11-28T13:46:56.252Z,8.50
2017-11-28T13:49:28.158Z,8.50
2017-11-28T13:52:00.029Z,8.50
2017-11-28T13:54:31.933Z,8.50
2017-11-28T13:57:03.800Z,8.50
2017-11-28T13:59:35.705Z,8.60
2017-11-28T14:02:07.579Z,8.50
2017-11-28T14:04:40.242Z,8.50
2017-11-28T14:07:12.110Z,8.50
2017-11-28T14:09:44.018Z,8.50
2017-11-28T14:12:15.906Z,8.50
2017-11-28T14:14:48.210Z,8.50
2017-11-28T14:17:20.076Z,8.50
2017-11-28T14:19:52.749Z,8.50
2017-11-28T14:22:25.416Z,8.40
2017-11-28T14:24:57.321Z,8.40
2017-11-28T14:27:29.195Z,8.40
2017-11-28T14:30:01.093Z,8.40
2017-11-28T14:32:32.990Z,8.30
2017-11-28T14:35:04.885Z,8.30
2017-11-28T14:37:36.767Z,8.20
2017-11-28T14:40:08.678Z,8.20
2017-11-28T14:42:40.567Z,8.10
2017-11-28T14:45:12.457Z,8.10
2017-11-28T14:47:44.329Z,8.00
2017-11-28T14:50:16.991Z,7.90
2017-11-28T14:52:48.927Z,7.90
2017-11-28T14:55:20.845Z,7.90
2017-11-28T14:57:52.708Z,7.80
2017-11-28T15:00:24.622Z,7.80
2017-11-28T15:02:56.498Z,7.70
2017-11-28T15:05:28.431Z,7.70
2017-11-28T15:08:00.311Z,7.60
2017-11-28T15:10:32.226Z,7.60
2017-11-28T15:13:04.112Z,7.60
2017-11-28T15:15:36.341Z,7.50
2017-11-28T15:18:08.252Z,7.50
2017-11-28T15:20:40.143Z,7.50
2017-11-28T15:23:12.816Z,7.40
2017-11-28T15:25:44.681Z,7.40
2017-11-28T15:28:17.324Z,7.40
2017-11-28T15:30:49.206Z,7.30
2017-11-28T15:33:21.072Z,7.40
2017-11-28T15:35:53.729Z,7.30
2017-11-28T15:38:25.605Z,7.30
2017-11-28T15:40:57.493Z,7.30
2017-11-28T15:43:29.381Z,7.30
2017-11-28T15:46:01.261Z,7.20
2017-11-28T15:48:33.125Z,7.20
2017-11-28T15:51:05.057Z,7.10
2017-11-28T15:53:36.935Z,7.00
2017-11-28T15:56:08.832Z,7.00
2017-11-28T15:58:40.707Z,6.90
2017-11-28T16:01:13.368Z,6.80
2017-11-28T16:03:45.237Z,6.80
2017-11-28T16:06:17.918Z,6.70
2017-11-28T16:08:50.557Z,6.60
2017-11-28T16:11:22.457Z,6.60
2017-11-28T16:13:55.090Z,6.60
2017-11-28T16:16:26.996Z,6.60
2017-11-28T16:18:59.637Z,6.50
2017-11-28T16:21:31.545Z,6.50
2017-11-28T16:24:04.191Z,6.40
2017-11-28T16:26:36.100Z,6.40
2017-11-28T16:29:07.974Z,6.40
2017-11-28T16:31:39.897Z,6.40
2017-11-28T16:34:12.555Z,6.30
2017-11-28T16:36:44.466Z,6.30
2017-11-28T16:39:16.339Z,6.20
2017-11-28T16:41:48.230Z,6.20
2017-11-28T16:44:20.125Z,6.10
2017-11-28T16:46:52.776Z,6.00
2017-11-28T16:49:24.654Z,6.00
2017-11-28T16:51:57.329Z,6.00
2017-11-28T16:54:29.970Z,5.90
2017-11-28T16:57:01.855Z,5.90
2017-11-28T16:59:33.720Z,5.90
2017-11-28T17:02:05.613Z,5.90
2017-11-28T17:04:37.480Z,5.90
2017-11-28T17:07:09.361Z,5.80
2017-11-28T17:09:41.237Z,5.80
2017-11-28T17:12:13.138Z,5.80
2017-11-28T17:14:45.010Z,5.80
2017-11-28T17:17:16.918Z,5.80
2017-11-28T17:19:48.795Z,5.80
2017-11-28T17:22:20.737Z,5.70
2017-11-28T17:24:52.605Z,5.60
2017-11-28T17:27:24.512Z,5.60
2017-11-28T17:29:56.380Z,5.60
2017-11-28T17:32:28.285Z,5.50
2017-11-28T17:35:00.161Z,5.40
2017-11-28T17:37:32.068Z,5.40
2017-11-28T17:40:03.942Z,5.40
2017-11-28T17:42:35.845Z,5.30
2017-11-28T17:45:07.709Z,5.30
2017-11-28T17:47:40.388Z,5.20
2017-11-28T17:50:13.029Z,5.20
2017-11-28T17:52:44.950Z,5.20
2017-11-28T17:55:16.813Z,5.10
2017-11-28T17:57:48.700Z,5.10
2017-11-28T18:00:20.586Z,5.10
2017-11-28T18:02:52.721Z,5.00
2017-11-28T18:05:24.593Z,5.00
2017-11-28T18:07:56.501Z,5.00
2017-11-28T18:10:29.145Z,5.00
2017-11-28T18:13:01.053Z,4.90
2017-11-28T18:15:32.936Z,4.90
2017-11-28T18:18:04.841Z,4.90
2017-11-28T18:20:36.714Z,4.90
2017-11-28T18:23:09.400Z,4.90
2017-11-28T18:25:42.084Z,4.90
2017-11-28T18:28:13.960Z,4.80
2017-11-28T18:30:45.866Z,4.80
2017-11-28T18:33:17.756Z,4.90
2017-11-28T18:35:50.659Z,4.80
2017-11-28T18:38:22.591Z,4.80
2017-11-28T18:40:54.453Z,4.80
2017-11-28T18:43:27.131Z,4.80
2017-11-28T18:45:59.005Z,4.70
2017-11-28T18:48:31.695Z,4.80
2017-11-28T18:51:04.388Z,4.80
2017-11-28T18:53:36.296Z,4.70
2017-11-28T18:56:08.181Z,4.80
2017-11-28T18:58:40.832Z,4.80
2017-11-28T19:01:12.741Z,4.80
2017-11-28T19:03:44.659Z,4.80
2017-11-28T19:06:16.544Z,4.80
2017-11-28T19:08:49.235Z,4.80
2017-11-28T19:11:21.108Z,4.80
2017-11-28T19:13:53.051Z,4.70
2017-11-28T19:16:24.933Z,4.70
2017-11-28T19:18:56.825Z,4.60
2017-11-28T19:21:28.701Z,4.60
2017-11-28T19:24:00.648Z,4.60
2017-11-28T19:26:32.525Z,4.60
2017-11-28T19:29:04.416Z,4.50
2017-11-28T19:31:36.291Z,4.60
2017-11-28T19:34:08.197Z,4.60
2017-11-28T19:36:40.066Z,4.60
2017-11-28T19:39:11.977Z,4.70
2017-11-28T19:41:43.843Z,4.70
2017-11-28T19:44:15.749Z,4.80
2017-11-28T19:46:47.629Z,4.80
2017-11-28T19:49:20.296Z,4.90
2017-11-28T19:51:52.932Z,4.90
2017-11-28T19:54:24.863Z,4.90
2017-11-28T19:56:56.751Z,5.00
2017-11-28T19:59:28.645Z,5.00
2017-11-28T20:02:00.517Z,5.00
2017-11-28T20:04:33.174Z,5.10
2017-11-28T20:07:05.049Z,5.10
2017-11-28T20:09:36.953Z,5.10
2017-11-28T20:12:08.843Z,5.10
2017-11-28T20:14:40.750Z,5.20
2017-11-28T20:17:13.385Z,5.20
2017-11-28T20:19:45.298Z,5.20
2017-11-28T20:22:17.933Z,5.30
2017-11-28T20:24:49.825Z,5.20
2017-11-28T20:27:22.472Z,5.30
2017-11-28T20:29:54.374Z,5.30
2017-11-28T20:32:26.240Z,5.30
2017-11-28T20:34:58.128Z,5.30
2017-11-28T20:37:29.987Z,5.30
2017-11-28T20:40:01.904Z,5.30
2017-11-28T20:42:34.565Z,5.40
2017-11-28T20:45:06.487Z,5.40
2017-11-28T20:47:38.360Z,5.40
2017-11-28T20:50:10.257Z,5.40
2017-11-28T20:52:42.893Z,5.40
2017-11-28T20:55:14.792Z,5.30
2017-11-28T20:57:47.430Z,5.30
2017-11-28T21:00:19.357Z,5.30
2017-11-28T21:02:51.237Z,5.30
2017-11-28T21:05:23.144Z,5.30
2017-11-28T21:07:55.013Z,5.30
2017-11-28T21:10:27.693Z,5.30
2017-11-28T21:13:00.338Z,5.30
2017-11-28T21:15:32.247Z,5.30
2017-11-28T21:18:04.876Z,5.30
2017-11-28T21:20:36.776Z,5.30
2017-11-28T21:23:09.420Z,5.30
2017-11-28T21:25:41.321Z,5.30
2017-11-28T21:28:13.952Z,5.30
